sensor_id;sensor_type;location;lat;lon;timestamp;P1;durP1;ratioP1;P2;durP2;ratioP2
15557;SDS011;7880;50.110;9.372;2024-03-06T00:02:04;23.130769230769225;;;13.461538461538462;;
15557;SDS011;7880;50.110;9.372;2024-03-06T00:07:06;23.823076923076925;;;12.961538461538462;;
15557;SDS011;7880;50.110;9.372;2024-03-06T00:12:15;21.676923076923078;;;12.400000000000004;;
15557;SDS011;7880;50.110;9.372;2024-03-06T00:17:13;29.23076923076923;;;14.800000000000002;;
15557;SDS011;7880;50.110;9.372;2024-03-06T00:22:21;23.23846153846155;;;13.130769230769225;;
15557;SDS011;7880;50.110;9.372;2024-03-06T00:27:23;22.846153846153847;;;12.438461538461542;;
15557;SDS011;7880;50.110;9.372;2024-03-06T00:32:24;18.192307692307693;;;11.630769230769229;;
15557;SDS011;7880;50.110;9.372;2024-03-06T00:37:30;22.261538461538457;;;12.130769230769225;;
15557;SDS011;7880;50.110;9.372;2024-03-06T00:42:30;25.446153846153848;;;12.3;;
15557;SDS011;7880;50.110;9.372;2024-03-06T00:46:42;24.800000000000008;;;14.769230769230765;;
15557;SDS011;7880;50.110;9.372;2024-03-06T00:51:38;24.70000000000001;;;13.792307692307693;;
15557;SDS011;7880;50.110;9.372;2024-03-06T00:56:44;22.646153846153855;;;12.369230769230775;;
15557;SDS011;7880;50.110;9.372;2024-03-06T01:01:43;16.5;;;9.86153846153846;;
15557;SDS011;7880;50.110;9.372;2024-03-06T01:06:52;16.300000000000004;;;9.030769230769229;;
15557;SDS011;7880;50.110;9.372;2024-03-06T01:11:50;15.438461538461533;;;9.06923076923077;;
15557;SDS011;7880;50.110;9.372;2024-03-06T01:16:54;17.484615384615388;;;10.8;;
15557;SDS011;7880;50.110;9.372;2024-03-06T01:22:06;17.73846153846154;;;10.66923076923077;;
15557;SDS011;7880;50.110;9.372;2024-03-06T01:26:59;18.0;;;11.138461538461538;;
15557;SDS011;7880;50.110;9.372;2024-03-06T01:32:05;20.892307692307693;;;11.030769230769229;;
15557;SDS011;7880;50.110;9.372;2024-03-06T01:37:05;16.046153846153842;;;9.42307692307692;;
15557;SDS011;7880;50.110;9.372;2024-03-06T01:42:07;20.423076923076927;;;10.461538461538463;;
15557;SDS011;7880;50.110;9.372;2024-03-06T01:47:11;23.73846153846155;;;11.83076923076923;;
15557;SDS011;7880;50.110;9.372;2024-03-06T01:52:17;21.307692307692317;;;11.06153846153846;;
15557;SDS011;7880;50.110;9.372;2024-03-06T01:57:18;18.630769230769232;;;11.06153846153846;;
15557;SDS011;7880;50.110;9.372;2024-03-06T02:02:25;18.076923076923077;;;9.599999999999998;;
15557;SDS011;7880;50.110;9.372;2024-03-06T02:07:23;17.507692307692306;;;9.969230769230771;;
15557;SDS011;7880;50.110;9.372;2024-03-06T02:12:30;20.176923076923078;;;10.5;;
15557;SDS011;7880;50.110;9.372;2024-03-06T02:17:31;19.646153846153847;;;9.530769230769229;;
15557;SDS011;7880;50.110;9.372;2024-03-06T02:22:36;14.246153846153849;;;8.16153846153846;;
15557;SDS011;7880;50.110;9.372;2024-03-06T02:27:39;13.653846153846153;;;7.89230769230769;;
15557;SDS011;7880;50.110;9.372;2024-03-06T02:32:43;15.400000000000004;;;8.5;;
15557;SDS011;7880;50.110;9.372;2024-03-06T02:37:42;16.16153846153846;;;8.700000000000001;;
15557;SDS011;7880;50.110;9.372;2024-03-06T02:42:55;15.515384615384619;;;7.923076923076923;;
15557;SDS011;7880;50.110;9.372;2024-03-06T02:47:50;11.238461538461536;;;7.5;;
15557;SDS011;7880;50.110;9.372;2024-03-06T02:53:01;17.638461538461538;;;8.969230769230771;;
15557;SDS011;7880;50.110;9.372;2024-03-06T02:58:00;18.800000000000004;;;9.5;;
15557;SDS011;7880;50.110;9.372;2024-03-06T03:03:02;21.107692307692307;;;11.16923076923077;;
15557;SDS011;7880;50.110;9.372;2024-03-06T03:08:09;21.56153846153846;;;11.2;;
15557;SDS011;7880;50.110;9.372;2024-03-06T03:13:08;24.76923076923077;;;12.230769230769235;;
15557;SDS011;7880;50.110;9.372;2024-03-06T03:18:12;21.130769230769225;;;11.8;;
15557;SDS011;7880;50.110;9.372;2024-03-06T03:23:22;21.446153846153848;;;11.730769230769235;;
15557;SDS011;7880;50.110;9.372;2024-03-06T03:28:23;20.16923076923077;;;10.63076923076923;;
15557;SDS011;7880;50.110;9.372;2024-03-06T03:33:21;19.138461538461538;;;10.06153846153846;;
15557;SDS011;7880;50.110;9.372;2024-03-06T03:38:25;19.73846153846154;;;9.0;;
15557;SDS011;7880;50.110;9.372;2024-03-06T03:43:28;17.546153846153846;;;10.06153846153846;;
15557;SDS011;7880;50.110;9.372;2024-03-06T03:48:46;21.615384615384624;;;10.099999999999998;;
15557;SDS011;7880;50.110;9.372;2024-03-06T03:53:40;15.792307692307693;;;8.892307692307691;;
15557;SDS011;7880;50.110;9.372;2024-03-06T03:58:40;16.692307692307693;;;8.930769230769231;;
15557;SDS011;7880;50.110;9.372;2024-03-06T04:03:44;14.89230769230769;;;8.592307692307692;;
15557;SDS011;7880;50.110;9.372;2024-03-06T04:08:46;19.923076923076923;;;10.36153846153846;;
15557;SDS011;7880;50.110;9.372;2024-03-06T04:13:51;19.653846153846153;;;9.153846153846153;;
15557;SDS011;7880;50.110;9.372;2024-03-06T04:18:56;20.930769230769233;;;10.792307692307693;;
15557;SDS011;7880;50.110;9.372;2024-03-06T04:23:56;17.992307692307694;;;9.630769230769229;;
15557;SDS011;7880;50.110;9.372;2024-03-06T04:29:05;19.71538461538462;;;10.038461538461538;;
15557;SDS011;7880;50.110;9.372;2024-03-06T04:34:02;15.330769230769231;;;9.299999999999999;;
15557;SDS011;7880;50.110;9.372;2024-03-06T04:39:07;19.146153846153847;;;9.138461538461538;;
15557;SDS011;7880;50.110;9.372;2024-03-06T04:44:10;16.115384615384613;;;8.86923076923077;;
15557;SDS011;7880;50.110;9.372;2024-03-06T04:49:11;16.330769230769235;;;8.961538461538462;;
15557;SDS011;7880;50.110;9.372;2024-03-06T04:54:15;18.72307692307692;;;10.400000000000002;;
15557;SDS011;7880;50.110;9.372;2024-03-06T04:59:17;22.16153846153846;;;10.792307692307693;;
15557;SDS011;7880;50.110;9.372;2024-03-06T05:04:19;26.153846153846153;;;14.069230769230767;;
15557;SDS011;7880;50.110;9.372;2024-03-06T05:09:24;19.75384615384615;;;11.261538461538464;;
15557;SDS011;7880;50.110;9.372;2024-03-06T05:14:27;20.23846153846154;;;10.376923076923076;;
15557;SDS011;7880;50.110;9.372;2024-03-06T05:19:32;21.75384615384615;;;10.576923076923077;;
15557;SDS011;7880;50.110;9.372;2024-03-06T05:24:50;25.33846153846154;;;10.83076923076923;;
15557;SDS011;7880;50.110;9.372;2024-03-06T05:29:38;19.78461538461538;;;10.992307692307692;;
15557;SDS011;7880;50.110;9.372;2024-03-06T05:34:43;20.069230769230767;;;11.39230769230769;;
15557;SDS011;7880;50.110;9.372;2024-03-06T05:39:46;18.430769230769233;;;11.161538461538461;;
15557;SDS011;7880;50.110;9.372;2024-03-06T05:44:50;20.207692307692305;;;10.530769230769229;;
15557;SDS011;7880;50.110;9.372;2024-03-06T05:48:42;27.276923076923076;;;13.761538461538466;;
15557;SDS011;7880;50.110;9.372;2024-03-06T05:53:45;22.638461538461534;;;12.16923076923077;;
15557;SDS011;7880;50.110;9.372;2024-03-06T05:58:49;21.95384615384616;;;11.3;;
15557;SDS011;7880;50.110;9.372;2024-03-06T06:04:04;30.107692307692307;;;12.530769230769229;;
15557;SDS011;7880;50.110;9.372;2024-03-06T06:08:55;29.53846153846154;;;14.230769230769235;;
15557;SDS011;7880;50.110;9.372;2024-03-06T06:14:01;30.676923076923067;;;13.653846153846152;;
15557;SDS011;7880;50.110;9.372;2024-03-06T06:19:03;25.692307692307693;;;13.484615384615385;;
15557;SDS011;7880;50.110;9.372;2024-03-06T06:24:07;33.20769230769232;;;15.10769230769231;;
15557;SDS011;7880;50.110;9.372;2024-03-06T06:29:10;32.46153846153847;;;16.03076923076923;;
15557;SDS011;7880;50.110;9.372;2024-03-06T06:34:14;31.53846153846154;;;15.907692307692313;;
15557;SDS011;7880;50.110;9.372;2024-03-06T06:39:26;29.77692307692307;;;14.346153846153847;;
15557;SDS011;7880;50.110;9.372;2024-03-06T06:44:25;34.86153846153846;;;16.192307692307693;;
15557;SDS011;7880;50.110;9.372;2024-03-06T06:49:24;37.13846153846154;;;15.938461538461542;;
15557;SDS011;7880;50.110;9.372;2024-03-06T06:54:27;32.33076923076923;;;15.261538461538464;;
15557;SDS011;7880;50.110;9.372;2024-03-06T06:59:30;32.3923076923077;;;16.069230769230767;;
15557;SDS011;7880;50.110;9.372;2024-03-06T07:04:40;39.16923076923078;;;16.599999999999998;;
15557;SDS011;7880;50.110;9.372;2024-03-06T07:09:41;37.63846153846154;;;16.330769230769235;;
15557;SDS011;7880;50.110;9.372;2024-03-06T07:14:46;37.0;;;18.26153846153846;;
15557;SDS011;7880;50.110;9.372;2024-03-06T07:19:48;37.56153846153846;;;16.72307692307692;;
15557;SDS011;7880;50.110;9.372;2024-03-06T07:24:56;34.72307692307692;;;15.78461538461538;;
15557;SDS011;7880;50.110;9.372;2024-03-06T07:30:16;41.300000000000004;;;17.56153846153846;;
15557;SDS011;7880;50.110;9.372;2024-03-06T07:35:12;38.60000000000001;;;17.161538461538463;;
15557;SDS011;7880;50.110;9.372;2024-03-06T07:40:20;37.684615384615384;;;16.607692307692307;;
15557;SDS011;7880;50.110;9.372;2024-03-06T07:45:20;37.82307692307692;;;17.900000000000002;;
15557;SDS011;7880;50.110;9.372;2024-03-06T07:50:23;37.73076923076922;;;17.330769230769235;;
15557;SDS011;7880;50.110;9.372;2024-03-06T07:55:31;37.61538461538461;;;16.938461538461542;;
15557;SDS011;7880;50.110;9.372;2024-03-06T08:00:40;46.76153846153845;;;19.792307692307695;;
15557;SDS011;7880;50.110;9.372;2024-03-06T08:05:36;35.58461538461539;;;15.592307692307696;;
15557;SDS011;7880;50.110;9.372;2024-03-06T08:10:37;39.86923076923077;;;18.430769230769233;;
15557;SDS011;7880;50.110;9.372;2024-03-06T08:15:44;34.5;;;16.053846153846152;;
15557;SDS011;7880;50.110;9.372;2024-03-06T08:20:50;36.59230769230769;;;17.400000000000002;;
15557;SDS011;7880;50.110;9.372;2024-03-06T08:25:49;33.88461538461538;;;15.569230769230767;;
15557;SDS011;7880;50.110;9.372;2024-03-06T08:30:55;36.19230769230769;;;17.423076923076923;;
15557;SDS011;7880;50.110;9.372;2024-03-06T08:36:02;38.14615384615385;;;16.78461538461538;;
15557;SDS011;7880;50.110;9.372;2024-03-06T08:40:59;37.130769230769225;;;16.23076923076923;;
15557;SDS011;7880;50.110;9.372;2024-03-06T08:46:07;33.65384615384616;;;16.069230769230767;;
15557;SDS011;7880;50.110;9.372;2024-03-06T08:51:13;33.9153846153846;;;15.123076923076924;;
15557;SDS011;7880;50.110;9.372;2024-03-06T08:56:37;31.630769230769225;;;15.469230769230771;;
15557;SDS011;7880;50.110;9.372;2024-03-06T09:01:44;31.47692307692308;;;14.39230769230769;;
15557;SDS011;7880;50.110;9.372;2024-03-06T09:06:45;40.24615384615384;;;15.838461538461537;;
15557;SDS011;7880;50.110;9.372;2024-03-06T09:11:52;34.00769230769232;;;15.430769230769233;;
15557;SDS011;7880;50.110;9.372;2024-03-06T09:16:49;35.52307692307693;;;15.184615384615382;;
15557;SDS011;7880;50.110;9.372;2024-03-06T09:21:52;35.06923076923077;;;14.430769230769233;;
15557;SDS011;7880;50.110;9.372;2024-03-06T09:26:55;32.5923076923077;;;14.699999999999998;;
15557;SDS011;7880;50.110;9.372;2024-03-06T09:31:58;32.692307692307686;;;14.99230769230769;;
15557;SDS011;7880;50.110;9.372;2024-03-06T09:37:05;36.88461538461537;;;14.89230769230769;;
15557;SDS011;7880;50.110;9.372;2024-03-06T09:42:05;29.153846153846146;;;14.146153846153844;;
15557;SDS011;7880;50.110;9.372;2024-03-06T09:47:06;28.300000000000008;;;15.0;;
15557;SDS011;7880;50.110;9.372;2024-03-06T09:52:11;29.52307692307691;;;13.384615384615385;;
15557;SDS011;7880;50.110;9.372;2024-03-06T09:57:16;29.192307692307683;;;13.061538461538458;;
15557;SDS011;7880;50.110;9.372;2024-03-06T10:02:18;26.77692307692307;;;12.592307692307696;;
15557;SDS011;7880;50.110;9.372;2024-03-06T10:07:18;30.107692307692297;;;12.269230769230765;;
15557;SDS011;7880;50.110;9.372;2024-03-06T10:12:28;25.830769230769228;;;11.961538461538462;;
15557;SDS011;7880;50.110;9.372;2024-03-06T10:17:27;21.16153846153846;;;11.430769230769233;;
15557;SDS011;7880;50.110;9.372;2024-03-06T10:22:34;23.115384615384624;;;11.8;;
15557;SDS011;7880;50.110;9.372;2024-03-06T10:27:35;21.52307692307693;;;11.900000000000004;;
15557;SDS011;7880;50.110;9.372;2024-03-06T10:32:44;23.9;;;11.638461538461538;;
15557;SDS011;7880;50.110;9.372;2024-03-06T10:37:40;23.9;;;11.638461538461538;;
15557;SDS011;7880;50.110;9.372;2024-03-06T10:42:44;20.800000000000004;;;11.261538461538464;;
15557;SDS011;7880;50.110;9.372;2024-03-06T10:47:45;20.800000000000004;;;11.261538461538464;;
15557;SDS011;7880;50.110;9.372;2024-03-06T10:52:55;20.199999999999996;;;12.2;;
15557;SDS011;7880;50.110;9.372;2024-03-06T10:57:58;22.253846153846155;;;11.338461538461539;;
15557;SDS011;7880;50.110;9.372;2024-03-06T11:03:05;17.96153846153846;;;10.469230769230771;;
15557;SDS011;7880;50.110;9.372;2024-03-06T11:08:03;18.56923076923077;;;9.700000000000001;;
15557;SDS011;7880;50.110;9.372;2024-03-06T11:13:08;24.707692307692312;;;11.8;;
15557;SDS011;7880;50.110;9.372;2024-03-06T11:18:40;23.653846153846146;;;12.930769230769233;;
15557;SDS011;7880;50.110;9.372;2024-03-06T11:23:25;24.415384615384614;;;12.438461538461542;;
15557;SDS011;7880;50.110;9.372;2024-03-06T11:28:24;26.55384615384615;;;13.353846153846158;;
15557;SDS011;7880;50.110;9.372;2024-03-06T11:33:28;25.692307692307683;;;13.900000000000004;;
15557;SDS011;7880;50.110;9.372;2024-03-06T11:38:36;25.838461538461537;;;13.284615384615384;;
15557;SDS011;7880;50.110;9.372;2024-03-06T11:43:41;26.669230769230772;;;13.823076923076922;;
15557;SDS011;7880;50.110;9.372;2024-03-06T11:48:37;23.83846153846154;;;12.3;;
15557;SDS011;7880;50.110;9.372;2024-03-06T11:53:44;19.561538461538458;;;10.83076923076923;;
15557;SDS011;7880;50.110;9.372;2024-03-06T11:58:42;20.47692307692307;;;10.599999999999998;;
15557;SDS011;7880;50.110;9.372;2024-03-06T12:03:46;19.400000000000002;;;11.599999999999996;;
15557;SDS011;7880;50.110;9.372;2024-03-06T12:08:48;17.900000000000002;;;10.200000000000001;;
15557;SDS011;7880;50.110;9.372;2024-03-06T12:13:52;19.123076923076923;;;10.161538461538461;;
15557;SDS011;7880;50.110;9.372;2024-03-06T12:19:00;17.73846153846154;;;10.099999999999998;;
15557;SDS011;7880;50.110;9.372;2024-03-06T12:24:05;16.130769230769225;;;9.36153846153846;;
15557;SDS011;7880;50.110;9.372;2024-03-06T12:29:09;16.346153846153847;;;9.700000000000001;;
15557;SDS011;7880;50.110;9.372;2024-03-06T12:34:17;17.484615384615385;;;9.02307692307692;;
15557;SDS011;7880;50.110;9.372;2024-03-06T12:39:14;13.438461538461542;;;8.599999999999998;;
15557;SDS011;7880;50.110;9.372;2024-03-06T12:44:19;15.792307692307693;;;8.26923076923077;;
15557;SDS011;7880;50.110;9.372;2024-03-06T12:49:19;15.330769230769231;;;8.46153846153846;;
15557;SDS011;7880;50.110;9.372;2024-03-06T12:54:26;14.130769230769225;;;8.030769230769229;;
15557;SDS011;7880;50.110;9.372;2024-03-06T12:59:24;13.900000000000004;;;7.93076923076923;;
15557;SDS011;7880;50.110;9.372;2024-03-06T13:04:28;15.961538461538462;;;9.069230769230769;;
15557;SDS011;7880;50.110;9.372;2024-03-06T13:09:35;15.876923076923076;;;9.269230769230768;;
15557;SDS011;7880;50.110;9.372;2024-03-06T13:14:36;16.55384615384616;;;9.261538461538464;;
15557;SDS011;7880;50.110;9.372;2024-03-06T13:19:39;15.199999999999998;;;9.299999999999999;;
15557;SDS011;7880;50.110;9.372;2024-03-06T13:24:44;14.900000000000004;;;8.599999999999998;;
15557;SDS011;7880;50.110;9.372;2024-03-06T13:29:47;14.923076923076918;;;8.961538461538462;;
15557;SDS011;7880;50.110;9.372;2024-03-06T13:34:51;17.907692307692304;;;9.530769230769229;;
15557;SDS011;7880;50.110;9.372;2024-03-06T13:39:52;14.753846153846151;;;9.292307692307693;;
15557;SDS011;7880;50.110;9.372;2024-03-06T13:44:55;16.330769230769235;;;10.06153846153846;;
15557;SDS011;7880;50.110;9.372;2024-03-06T13:49:57;18.23076923076923;;;10.730769230769235;;
15557;SDS011;7880;50.110;9.372;2024-03-06T13:55:00;18.592307692307696;;;9.792307692307693;;
15557;SDS011;7880;50.110;9.372;2024-03-06T14:00:13;18.592307692307696;;;10.292307692307693;;
15557;SDS011;7880;50.110;9.372;2024-03-06T14:05:07;19.78461538461538;;;10.623076923076924;;
15557;SDS011;7880;50.110;9.372;2024-03-06T14:10:09;18.06923076923077;;;10.930769230769233;;
15557;SDS011;7880;50.110;9.372;2024-03-06T14:15:12;17.838461538461537;;;11.2;;
15557;SDS011;7880;50.110;9.372;2024-03-06T14:20:16;15.39230769230769;;;9.89230769230769;;
15557;SDS011;7880;50.110;9.372;2024-03-06T14:25:17;17.815384615384616;;;10.653846153846153;;
15557;SDS011;7880;50.110;9.372;2024-03-06T14:30:20;17.599999999999998;;;10.16923076923077;;
15557;SDS011;7880;50.110;9.372;2024-03-06T14:35:21;16.392307692307693;;;10.530769230769229;;
15557;SDS011;7880;50.110;9.372;2024-03-06T14:40:24;24.02307692307693;;;12.2;;
15557;SDS011;7880;50.110;9.372;2024-03-06T14:45:26;19.953846153846158;;;13.430769230769233;;
15557;SDS011;7880;50.110;9.372;2024-03-06T14:50:37;24.569230769230767;;;13.830769230769231;;
15557;SDS011;7880;50.110;9.372;2024-03-06T14:55:34;21.87692307692308;;;12.2;;
15557;SDS011;7880;50.110;9.372;2024-03-06T15:00:35;21.907692307692304;;;13.738461538461536;;
15557;SDS011;7880;50.110;9.372;2024-03-06T15:05:37;21.846153846153836;;;12.86153846153846;;
15557;SDS011;7880;50.110;9.372;2024-03-06T15:10:40;33.1076923076923;;;14.761538461538464;;
15557;SDS011;7880;50.110;9.372;2024-03-06T15:15:43;26.94615384615385;;;14.130769230769225;;
15557;SDS011;7880;50.110;9.372;2024-03-06T15:20:46;24.54615384615384;;;13.469230769230771;;
15557;SDS011;7880;50.110;9.372;2024-03-06T15:25:49;24.930769230769233;;;15.161538461538463;;
15557;SDS011;7880;50.110;9.372;2024-03-06T15:30:56;35.11538461538461;;;19.099999999999998;;
15557;SDS011;7880;50.110;9.372;2024-03-06T15:35:56;20.861538461538462;;;13.561538461538458;;
15557;SDS011;7880;50.110;9.372;2024-03-06T15:40:59;23.130769230769225;;;14.5;;
15557;SDS011;7880;50.110;9.372;2024-03-06T15:46:04;26.069230769230767;;;14.469230769230771;;
15557;SDS011;7880;50.110;9.372;2024-03-06T15:51:07;23.561538461538458;;;14.830769230769231;;
15557;SDS011;7880;50.110;9.372;2024-03-06T15:55:15;27.699999999999992;;;17.669230769230765;;
15557;SDS011;7880;50.110;9.372;2024-03-06T16:00:16;31.54615384615384;;;19.0;;
15557;SDS011;7880;50.110;9.372;2024-03-06T16:05:17;29.06153846153847;;;15.176923076923078;;
15557;SDS011;7880;50.110;9.372;2024-03-06T16:10:17;25.199999999999992;;;15.530769230769229;;
15557;SDS011;7880;50.110;9.372;2024-03-06T16:15:30;27.03846153846153;;;15.699999999999998;;
15557;SDS011;7880;50.110;9.372;2024-03-06T16:20:23;31.653846153846164;;;16.46923076923077;;
15557;SDS011;7880;50.110;9.372;2024-03-06T16:25:25;25.292307692307688;;;15.061538461538458;;
15557;SDS011;7880;50.110;9.372;2024-03-06T16:30:26;25.5;;;14.869230769230775;;
15557;SDS011;7880;50.110;9.372;2024-03-06T16:35:32;23.992307692307694;;;15.030769230769229;;
15557;SDS011;7880;50.110;9.372;2024-03-06T16:40:38;26.423076923076923;;;15.530769230769229;;
15557;SDS011;7880;50.110;9.372;2024-03-06T16:45:36;29.55384615384615;;;16.0;;
15557;SDS011;7880;50.110;9.372;2024-03-06T16:50:42;31.23076923076923;;;17.23076923076923;;
15557;SDS011;7880;50.110;9.372;2024-03-06T16:55:49;26.161538461538456;;;15.861538461538462;;
15557;SDS011;7880;50.110;9.372;2024-03-06T17:00:49;32.30769230769231;;;17.892307692307693;;
15557;SDS011;7880;50.110;9.372;2024-03-06T17:05:52;28.78461538461539;;;17.307692307692307;;
15557;SDS011;7880;50.110;9.372;2024-03-06T17:10:54;31.399999999999995;;;18.199999999999996;;
15557;SDS011;7880;50.110;9.372;2024-03-06T17:15:57;31.707692307692312;;;17.907692307692304;;
15557;SDS011;7880;50.110;9.372;2024-03-06T17:20:59;29.938461538461542;;;17.56923076923077;;
15557;SDS011;7880;50.110;9.372;2024-03-06T17:26:10;31.123076923076916;;;16.92307692307692;;
15557;SDS011;7880;50.110;9.372;2024-03-06T17:31:19;30.73076923076923;;;17.792307692307695;;
15557;SDS011;7880;50.110;9.372;2024-03-06T17:36:12;34.53076923076924;;;19.400000000000002;;
15557;SDS011;7880;50.110;9.372;2024-03-06T17:41:17;35.01538461538461;;;18.76923076923077;;
15557;SDS011;7880;50.110;9.372;2024-03-06T17:46:34;34.69230769230769;;;20.630769230769225;;
15557;SDS011;7880;50.110;9.372;2024-03-06T17:51:27;37.13846153846154;;;20.461538461538467;;
15557;SDS011;7880;50.110;9.372;2024-03-06T17:56:26;31.923076923076923;;;18.961538461538467;;
15557;SDS011;7880;50.110;9.372;2024-03-06T18:01:28;30.638461538461534;;;18.699999999999996;;
15557;SDS011;7880;50.110;9.372;2024-03-06T18:06:29;37.34615384615385;;;19.823076923076922;;
15557;SDS011;7880;50.110;9.372;2024-03-06T18:11:34;42.82307692307693;;;23.638461538461534;;
15557;SDS011;7880;50.110;9.372;2024-03-06T18:16:39;38.56153846153846;;;22.630769230769225;;
15557;SDS011;7880;50.110;9.372;2024-03-06T18:21:44;36.56153846153846;;;20.992307692307694;;
15557;SDS011;7880;50.110;9.372;2024-03-06T18:26:45;37.923076923076934;;;20.792307692307695;;
15557;SDS011;7880;50.110;9.372;2024-03-06T18:31:52;37.85384615384615;;;21.3923076923077;;
15557;SDS011;7880;50.110;9.372;2024-03-06T18:36:51;46.376923076923084;;;22.78461538461538;;
15557;SDS011;7880;50.110;9.372;2024-03-06T18:42:01;36.584615384615375;;;21.561538461538458;;
15557;SDS011;7880;50.110;9.372;2024-03-06T18:47:01;43.2;;;22.46153846153847;;
15557;SDS011;7880;50.110;9.372;2024-03-06T18:52:11;42.407692307692315;;;23.430769230769233;;
15557;SDS011;7880;50.110;9.372;2024-03-06T18:57:12;44.7846153846154;;;24.392307692307703;;
15557;SDS011;7880;50.110;9.372;2024-03-06T19:02:21;53.4923076923077;;;33.56923076923078;;
15557;SDS011;7880;50.110;9.372;2024-03-06T19:07:16;49.7;;;26.800000000000008;;
15557;SDS011;7880;50.110;9.372;2024-03-06T19:12:19;43.60000000000001;;;24.9;;
15557;SDS011;7880;50.110;9.372;2024-03-06T19:17:28;38.199999999999996;;;22.6;;
15557;SDS011;7880;50.110;9.372;2024-03-06T19:22:33;36.57692307692307;;;21.300000000000008;;
15557;SDS011;7880;50.110;9.372;2024-03-06T19:27:32;40.8;;;22.800000000000008;;
15557;SDS011;7880;50.110;9.372;2024-03-06T19:32:30;41.3;;;23.199999999999992;;
15557;SDS011;7880;50.110;9.372;2024-03-06T19:37:34;39.8;;;21.6;;
15557;SDS011;7880;50.110;9.372;2024-03-06T19:42:36;41.199999999999996;;;22.6;;
15557;SDS011;7880;50.110;9.372;2024-03-06T19:47:49;40.8;;;23.4;;
15557;SDS011;7880;50.110;9.372;2024-03-06T19:52:50;38.39999999999999;;;22.5;;
15557;SDS011;7880;50.110;9.372;2024-03-06T19:57:51;37.0;;;21.800000000000008;;
15557;SDS011;7880;50.110;9.372;2024-03-06T20:02:51;43.3;;;23.5;;
15557;SDS011;7880;50.110;9.372;2024-03-06T20:08:01;41.39999999999999;;;22.800000000000008;;
15557;SDS011;7880;50.110;9.372;2024-03-06T20:13:02;41.0;;;23.699999999999992;;
15557;SDS011;7880;50.110;9.372;2024-03-06T20:17:59;37.10000000000001;;;21.9;;
15557;SDS011;7880;50.110;9.372;2024-03-06T20:23:07;44.899999999999984;;;23.9;;
15557;SDS011;7880;50.110;9.372;2024-03-06T20:28:07;36.800000000000004;;;21.5;;
15557;SDS011;7880;50.110;9.372;2024-03-06T20:33:10;43.0;;;23.0;;
15557;SDS011;7880;50.110;9.372;2024-03-06T20:38:20;38.5;;;21.1;;
15557;SDS011;7880;50.110;9.372;2024-03-06T20:43:14;38.39999999999999;;;22.4;;
15557;SDS011;7880;50.110;9.372;2024-03-06T20:48:18;47.10000000000001;;;23.699999999999992;;
15557;SDS011;7880;50.110;9.372;2024-03-06T20:53:22;43.0;;;23.9;;
15557;SDS011;7880;50.110;9.372;2024-03-06T20:57:19;45.25384615384614;;;28.907692307692308;;
15557;SDS011;7880;50.110;9.372;2024-03-06T21:02:24;45.169230769230765;;;24.699999999999992;;
15557;SDS011;7880;50.110;9.372;2024-03-06T21:07:26;40.138461538461534;;;21.76923076923077;;
15557;SDS011;7880;50.110;9.372;2024-03-06T21:12:27;40.715384615384615;;;22.73076923076923;;
15557;SDS011;7880;50.110;9.372;2024-03-06T21:17:31;38.29230769230769;;;21.699999999999992;;
15557;SDS011;7880;50.110;9.372;2024-03-06T21:22:33;38.79230769230769;;;21.323076923076922;;
15557;SDS011;7880;50.110;9.372;2024-03-06T21:27:38;35.39999999999999;;;22.292307692307688;;
15557;SDS011;7880;50.110;9.372;2024-03-06T21:32:38;38.300000000000004;;;23.261538461538457;;
15557;SDS011;7880;50.110;9.372;2024-03-06T21:37:41;32.87692307692308;;;20.430769230769233;;
15557;SDS011;7880;50.110;9.372;2024-03-06T21:42:49;40.44615384615385;;;22.83076923076923;;
15557;SDS011;7880;50.110;9.372;2024-03-06T21:47:49;36.05384615384615;;;20.52307692307693;;
15557;SDS011;7880;50.110;9.372;2024-03-06T21:52:51;32.58461538461538;;;20.930769230769233;;
15557;SDS011;7880;50.110;9.372;2024-03-06T21:57:55;35.800000000000004;;;19.76153846153846;;
15557;SDS011;7880;50.110;9.372;2024-03-06T22:02:57;35.7153846153846;;;19.30769230769231;;
15557;SDS011;7880;50.110;9.372;2024-03-06T22:08:05;30.092307692307696;;;19.03076923076923;;
15557;SDS011;7880;50.110;9.372;2024-03-06T22:13:02;33.64615384615385;;;19.199999999999996;;
15557;SDS011;7880;50.110;9.372;2024-03-06T22:18:08;32.676923076923075;;;20.16153846153846;;
15557;SDS011;7880;50.110;9.372;2024-03-06T22:23:09;33.11538461538461;;;20.66923076923077;;